createdAt,value
2018-07-13T00:00:38.734Z,0.00
2018-07-13T00:01:38.712Z,0.00
2018-07-13T00:02:38.701Z,0.00
2018-07-13T00:03:38.764Z,0.00
2018-07-13T00:04:38.685Z,0.00
2018-07-13T00:05:38.668Z,0.00
2018-07-13T00:06:38.660Z,0.00
2018-07-13T00:07:38.649Z,0.00
2018-07-13T00:08:38.701Z,0.00
2018-07-13T00:09:38.693Z,0.00
2018-07-13T00:10:38.613Z,0.00
2018-07-13T00:11:38.602Z,0.00
2018-07-13T00:12:38.591Z,0.00
2018-07-13T00:13:38.579Z,0.00
2018-07-13T00:14:38.643Z,0.00
2018-07-13T00:15:38.576Z,0.00
2018-07-13T00:16:38.547Z,0.00
2018-07-13T00:17:41.096Z,0.00
2018-07-13T00:18:38.535Z,0.00
2018-07-13T00:19:38.583Z,0.00
2018-07-13T00:20:38.511Z,0.00
2018-07-13T00:21:38.499Z,0.00
2018-07-13T00:22:38.486Z,0.00
2018-07-13T00:23:38.477Z,0.00
2018-07-13T00:24:38.530Z,0.00
2018-07-13T00:25:38.452Z,0.00
2018-07-13T00:26:38.446Z,0.00
2018-07-13T00:27:38.450Z,0.00
2018-07-13T00:28:38.422Z,0.00
2018-07-13T00:29:38.475Z,0.00
2018-07-13T00:30:38.400Z,0.00
2018-07-13T00:31:38.386Z,0.00
2018-07-13T00:32:38.383Z,0.00
2018-07-13T00:33:38.364Z,0.00
2018-07-13T00:34:38.419Z,0.00
2018-07-13T00:35:38.349Z,0.00
2018-07-13T00:36:38.334Z,0.00
2018-07-13T00:37:38.324Z,0.00
2018-07-13T00:38:39.096Z,0.00
2018-07-13T00:39:38.377Z,0.00
2018-07-13T00:40:38.290Z,0.00
2018-07-13T00:41:38.278Z,0.00
2018-07-13T00:42:38.274Z,0.00
2018-07-13T00:43:38.262Z,0.00
2018-07-13T00:44:38.330Z,0.00
2018-07-13T00:45:38.240Z,0.00
2018-07-13T00:46:38.230Z,0.00
2018-07-13T00:47:38.215Z,0.00
2018-07-13T00:48:38.204Z,0.00
2018-07-13T00:49:38.264Z,0.00
2018-07-13T00:50:38.187Z,0.00
2018-07-13T00:51:38.174Z,0.00
2018-07-13T00:52:38.160Z,0.00
2018-07-13T00:53:38.155Z,0.00
2018-07-13T00:54:38.138Z,0.00
2018-07-13T00:55:38.195Z,0.00
2018-07-13T00:56:38.141Z,0.00
2018-07-13T00:57:38.104Z,0.00
2018-07-13T00:58:38.094Z,0.00
2018-07-13T00:59:38.602Z,0.00
2018-07-13T01:00:38.140Z,0.00
2018-07-13T01:01:38.066Z,0.00
2018-07-13T01:02:38.055Z,0.00
2018-07-13T01:03:38.044Z,0.00
2018-07-13T01:04:38.030Z,0.00
2018-07-13T01:05:38.089Z,0.00
2018-07-13T01:06:38.008Z,0.00
2018-07-13T01:07:38.005Z,0.00
2018-07-13T01:08:37.989Z,0.00
2018-07-13T01:09:37.975Z,0.00
2018-07-13T01:10:38.166Z,0.00
2018-07-13T01:11:37.954Z,0.00
2018-07-13T01:12:37.942Z,0.00
2018-07-13T01:13:37.936Z,0.00
2018-07-13T01:14:37.925Z,0.00
2018-07-13T01:15:37.978Z,0.00
2018-07-13T01:16:37.902Z,0.00
2018-07-13T01:17:37.890Z,0.00
2018-07-13T01:18:37.878Z,0.00
2018-07-13T01:19:37.875Z,0.00
2018-07-13T01:20:38.169Z,0.00
2018-07-13T01:21:37.848Z,0.00
2018-07-13T01:22:37.837Z,0.00
2018-07-13T01:23:37.826Z,0.00
2018-07-13T01:24:37.815Z,0.00
2018-07-13T01:25:37.870Z,0.00
2018-07-13T01:26:37.793Z,0.00
2018-07-13T01:27:37.781Z,0.00
2018-07-13T01:28:37.771Z,0.00
2018-07-13T01:29:37.767Z,0.00
2018-07-13T01:30:37.815Z,0.00
2018-07-13T01:31:37.740Z,0.00
2018-07-13T01:32:37.729Z,0.00
2018-07-13T01:33:37.715Z,0.00
2018-07-13T01:34:37.707Z,0.00
2018-07-13T01:35:37.764Z,0.00
2018-07-13T01:36:37.687Z,0.00
2018-07-13T01:37:37.673Z,0.00
2018-07-13T01:38:37.674Z,0.00
2018-07-13T01:39:37.654Z,0.00
2018-07-13T01:40:37.651Z,0.00
2018-07-13T01:41:38.164Z,0.00
2018-07-13T01:42:37.624Z,0.00
2018-07-13T01:43:37.610Z,0.00
2018-07-13T01:44:45.727Z,0.00
2018-07-13T01:45:45.798Z,0.00
2018-07-13T01:48:15.136Z,0.00
2018-07-13T01:49:15.062Z,0.00
2018-07-13T01:50:22.563Z,0.00
2018-07-13T01:51:23.281Z,0.00
2018-07-13T01:52:22.540Z,0.00
2018-07-13T01:53:22.529Z,0.00
2018-07-13T01:54:23.154Z,0.00
2018-07-13T01:55:23.077Z,0.00
2018-07-13T01:56:23.130Z,0.00
2018-07-13T01:57:14.968Z,0.00
2018-07-13T01:58:23.097Z,0.00
2018-07-13T01:59:23.107Z,0.00
2018-07-13T02:00:23.128Z,0.00
2018-07-13T02:01:22.512Z,0.00
2018-07-13T02:02:23.016Z,0.00
2018-07-13T02:03:14.904Z,0.00
2018-07-13T02:04:14.893Z,0.00
2018-07-13T02:05:14.884Z,0.00
2018-07-13T02:06:23.099Z,0.00
2018-07-13T02:07:23.546Z,0.00
2018-07-13T02:08:23.066Z,0.00
2018-07-13T02:09:22.361Z,0.00
2018-07-13T02:10:27.793Z,0.00
2018-07-13T02:11:22.434Z,0.00
2018-07-13T02:12:24.317Z,0.00
2018-07-13T02:13:22.369Z,0.00
2018-07-13T02:14:22.878Z,0.00
2018-07-13T02:15:22.361Z,0.00
2018-07-13T02:16:22.286Z,0.00
2018-07-13T02:17:22.964Z,0.00
2018-07-13T02:18:22.280Z,0.00
2018-07-13T02:19:22.303Z,0.00
2018-07-13T02:20:22.815Z,0.00
2018-07-13T02:21:23.370Z,0.00
2018-07-13T02:22:22.299Z,0.00
2018-07-13T02:23:22.840Z,0.00
2018-07-13T02:24:22.838Z,0.00
2018-07-13T02:25:22.743Z,0.00
2018-07-13T02:26:22.753Z,0.00
2018-07-13T02:27:22.824Z,0.00
2018-07-13T02:28:23.272Z,0.00
2018-07-13T02:29:22.789Z,0.00
2018-07-13T02:30:22.777Z,0.00
2018-07-13T02:31:14.613Z,0.00
2018-07-13T02:32:14.666Z,0.00
2018-07-13T02:33:15.478Z,0.00
2018-07-13T02:34:14.572Z,0.00
2018-07-13T02:35:14.570Z,0.00
2018-07-13T02:36:14.553Z,0.00
2018-07-13T02:37:14.611Z,0.00
2018-07-13T02:38:14.530Z,0.00
2018-07-13T02:39:14.620Z,0.00
2018-07-13T02:40:14.511Z,0.00
2018-07-13T02:41:14.500Z,0.00
2018-07-13T02:42:14.555Z,0.00
2018-07-13T02:43:14.486Z,0.00
2018-07-13T02:44:14.469Z,0.00
2018-07-13T02:45:14.512Z,0.00
2018-07-13T02:46:14.447Z,0.00
2018-07-13T02:47:14.508Z,0.00
2018-07-13T02:48:14.428Z,0.00
2018-07-13T02:49:14.417Z,0.00
2018-07-13T02:50:14.403Z,0.00
2018-07-13T02:51:14.980Z,0.00
2018-07-13T02:52:14.449Z,0.00
2018-07-13T02:53:14.373Z,4.00
2018-07-13T02:54:14.376Z,4.00
2018-07-13T02:55:14.351Z,4.00
2018-07-13T02:56:14.337Z,4.00
2018-07-13T02:57:14.395Z,4.00
2018-07-13T02:58:14.319Z,4.00
2018-07-13T02:59:14.306Z,4.00
2018-07-13T03:00:14.296Z,8.00
2018-07-13T03:01:14.286Z,4.00
2018-07-13T03:02:14.343Z,8.00
2018-07-13T03:03:14.265Z,8.00
2018-07-13T03:04:14.254Z,8.00
2018-07-13T03:05:14.244Z,12.00
2018-07-13T03:06:14.291Z,12.00
2018-07-13T03:07:14.298Z,16.00
2018-07-13T03:08:14.207Z,20.00
2018-07-13T03:09:14.199Z,16.00
2018-07-13T03:10:14.188Z,20.00
2018-07-13T03:11:14.177Z,24.00
2018-07-13T03:12:14.971Z,32.00
2018-07-13T03:13:14.226Z,32.00
2018-07-13T03:14:14.150Z,40.00
2018-07-13T03:15:14.141Z,40.00
2018-07-13T03:16:14.125Z,48.00
2018-07-13T03:17:14.116Z,56.00
2018-07-13T03:18:14.169Z,60.00
2018-07-13T03:19:14.114Z,68.00
2018-07-13T03:20:14.084Z,76.00
2018-07-13T03:21:14.069Z,88.00
2018-07-13T03:22:14.067Z,96.00
2018-07-13T03:23:14.116Z,108.00
2018-07-13T03:24:14.039Z,120.00
2018-07-13T03:25:14.039Z,132.00
2018-07-13T03:26:14.017Z,148.00
2018-07-13T03:27:14.008Z,164.00
2018-07-13T03:28:14.058Z,176.00
2018-07-13T03:29:13.999Z,192.00
2018-07-13T03:30:13.977Z,212.00
2018-07-13T03:31:13.970Z,232.00
2018-07-13T03:32:13.953Z,248.00
2018-07-13T03:33:15.548Z,268.00
2018-07-13T03:34:13.934Z,292.00
2018-07-13T03:35:13.922Z,312.00
2018-07-13T03:36:13.912Z,340.00
2018-07-13T03:37:13.898Z,364.00
2018-07-13T03:38:14.010Z,388.00
2018-07-13T03:39:13.876Z,412.00
2018-07-13T03:40:13.870Z,444.00
2018-07-13T03:41:13.856Z,472.00
2018-07-13T03:42:13.845Z,500.00
2018-07-13T03:43:13.903Z,532.00
2018-07-13T03:44:13.823Z,564.00
2018-07-13T03:45:13.815Z,600.00
2018-07-13T03:46:13.804Z,632.00
2018-07-13T03:47:13.796Z,668.00
2018-07-13T03:48:13.878Z,708.00
2018-07-13T03:49:13.768Z,744.00
2018-07-13T03:50:13.757Z,784.00
2018-07-13T03:51:13.752Z,824.00
2018-07-13T03:52:13.735Z,864.00
2018-07-13T03:53:13.799Z,912.00
2018-07-13T03:54:15.519Z,956.00
2018-07-13T03:55:13.707Z,1000.00
2018-07-13T03:56:13.693Z,1048.00
2018-07-13T03:57:13.685Z,1096.00
2018-07-13T03:58:13.756Z,1140.00
2018-07-13T03:59:13.666Z,1192.00
2018-07-13T04:00:13.655Z,1240.00
2018-07-13T04:01:13.643Z,1292.00
2018-07-13T04:02:13.633Z,1340.00
2018-07-13T04:03:13.687Z,1392.00
2018-07-13T04:04:13.608Z,1444.00
2018-07-13T04:05:13.596Z,1500.00
2018-07-13T04:06:13.591Z,1552.00
2018-07-13T04:07:13.578Z,1612.00
2018-07-13T04:08:13.633Z,1668.00
2018-07-13T04:09:13.558Z,1728.00
2018-07-13T04:10:13.544Z,1796.00
2018-07-13T04:11:13.533Z,1864.00
2018-07-13T04:12:13.522Z,1932.00
2018-07-13T04:13:13.514Z,1992.00
2018-07-13T04:14:13.569Z,2044.00
2018-07-13T04:15:14.470Z,2096.00
2018-07-13T04:16:13.481Z,2144.00
2018-07-13T04:17:13.470Z,2192.00
2018-07-13T04:18:13.459Z,2244.00
2018-07-13T04:19:13.525Z,2296.00
2018-07-13T04:20:13.455Z,2356.00
2018-07-13T04:21:13.452Z,2420.00
2018-07-13T04:22:13.414Z,2488.00
2018-07-13T04:23:13.406Z,2548.00
2018-07-13T04:24:13.463Z,2600.00
2018-07-13T04:25:13.387Z,2652.00
2018-07-13T04:26:13.374Z,2692.00
2018-07-13T04:27:13.362Z,2732.00
2018-07-13T04:28:13.352Z,2768.00
2018-07-13T04:29:13.403Z,2800.00
2018-07-13T04:30:13.332Z,2840.00
2018-07-13T04:31:13.321Z,2876.00
2018-07-13T04:32:13.314Z,2920.00
2018-07-13T04:33:13.298Z,2964.00
2018-07-13T04:34:13.414Z,3012.00
2018-07-13T04:35:13.280Z,3064.00
2018-07-13T04:36:13.975Z,3116.00
2018-07-13T04:37:13.259Z,3172.00
2018-07-13T04:38:13.245Z,3224.00
2018-07-13T04:39:13.303Z,3276.00
2018-07-13T04:40:13.228Z,3332.00
2018-07-13T04:41:13.213Z,3380.00
2018-07-13T04:42:13.204Z,3432.00
2018-07-13T04:43:13.190Z,3492.00
2018-07-13T04:44:13.547Z,3552.00
2018-07-13T04:45:13.171Z,3616.00
2018-07-13T04:46:13.162Z,3684.00
2018-07-13T04:47:13.154Z,3744.00
2018-07-13T04:48:13.137Z,3804.00
2018-07-13T04:49:13.193Z,3860.00
2018-07-13T04:50:13.153Z,3916.00
2018-07-13T04:51:13.107Z,3968.00
2018-07-13T04:52:13.098Z,4024.00
2018-07-13T04:53:13.090Z,4080.00
2018-07-13T04:54:13.148Z,4136.00
2018-07-13T04:55:13.073Z,4196.00
2018-07-13T04:56:13.058Z,4264.00
2018-07-13T04:57:13.970Z,4320.00
2018-07-13T04:58:13.034Z,4380.00
2018-07-13T04:59:13.120Z,4448.00
2018-07-13T05:00:13.018Z,4512.00
2018-07-13T05:01:13.005Z,4580.00
2018-07-13T05:02:12.991Z,4644.00
2018-07-13T05:03:12.980Z,4716.00
2018-07-13T05:04:13.038Z,4788.00
2018-07-13T05:05:12.962Z,4852.00
2018-07-13T05:06:12.953Z,4920.00
2018-07-13T05:07:12.935Z,4976.00
2018-07-13T05:08:12.925Z,5032.00
2018-07-13T05:09:12.990Z,5092.00
2018-07-13T05:10:12.916Z,5152.00
2018-07-13T05:11:12.901Z,5216.00
2018-07-13T05:12:12.894Z,5272.00
2018-07-13T05:13:12.894Z,5336.00
2018-07-13T05:14:12.940Z,5392.00
2018-07-13T05:15:12.852Z,5452.00
2018-07-13T05:16:12.838Z,5512.00
2018-07-13T05:17:12.830Z,5572.00
2018-07-13T05:18:15.463Z,5644.00
2018-07-13T05:19:12.888Z,5720.00
2018-07-13T05:20:12.794Z,5796.00
2018-07-13T05:21:12.820Z,5876.00
2018-07-13T05:22:12.844Z,5952.00
2018-07-13T05:23:12.766Z,6032.00
2018-07-13T05:24:12.761Z,6100.00
2018-07-13T05:25:12.808Z,6180.00
2018-07-13T05:26:12.733Z,6264.00
2018-07-13T05:27:12.724Z,6344.00
2018-07-13T05:28:12.711Z,6416.00
2018-07-13T05:29:12.703Z,6492.00
2018-07-13T05:30:12.787Z,6580.00
2018-07-13T05:31:12.694Z,6668.00
2018-07-13T05:32:12.670Z,6748.00
2018-07-13T05:33:12.661Z,6836.00
2018-07-13T05:34:12.669Z,6904.00
2018-07-13T05:35:12.722Z,6964.00
2018-07-13T05:36:12.631Z,7036.00
2018-07-13T05:37:12.626Z,7120.00
2018-07-13T05:38:12.612Z,7188.00
2018-07-13T05:39:13.463Z,7264.00
2018-07-13T05:40:12.651Z,7360.00
2018-07-13T05:41:12.589Z,7440.00
2018-07-13T05:42:12.562Z,7528.00
2018-07-13T05:43:12.567Z,7612.00
2018-07-13T05:44:12.540Z,7688.00
2018-07-13T05:45:12.617Z,7776.00
2018-07-13T05:46:12.521Z,7860.00
2018-07-13T05:47:12.510Z,7944.00
2018-07-13T05:48:12.501Z,8016.00
2018-07-13T05:49:20.604Z,8092.00
2018-07-13T05:50:12.546Z,8180.00
2018-07-13T05:51:44.542Z,8292.00
2018-07-13T05:52:12.462Z,8400.00
2018-07-13T05:53:12.450Z,8504.00
2018-07-13T05:54:13.058Z,8624.00
2018-07-13T05:55:12.495Z,8764.00
2018-07-13T05:56:19.942Z,8936.00
2018-07-13T05:57:19.928Z,10544.00
2018-07-13T05:58:20.546Z,14216.00
2018-07-13T05:59:19.919Z,16608.00
2018-07-13T06:00:19.995Z,17248.00
2018-07-13T06:01:19.919Z,18016.00
2018-07-13T06:02:12.355Z,19584.00
2018-07-13T06:03:12.344Z,20640.00
2018-07-13T06:04:12.331Z,20800.00
2018-07-13T06:05:12.388Z,22048.00
2018-07-13T06:06:12.311Z,23488.00
2018-07-13T06:07:12.300Z,22240.00
2018-07-13T06:08:12.287Z,23360.00
2018-07-13T06:09:12.276Z,23968.00
2018-07-13T06:10:12.337Z,22816.00
2018-07-13T06:11:12.259Z,21920.00
2018-07-13T06:12:12.253Z,24384.00
2018-07-13T06:13:12.251Z,25600.00
2018-07-13T06:14:12.229Z,25888.00
2018-07-13T06:15:12.340Z,25952.00
2018-07-13T06:16:12.212Z,25056.00
2018-07-13T06:17:12.202Z,25440.00
2018-07-13T06:18:12.184Z,27072.00
2018-07-13T06:19:12.178Z,26816.00
2018-07-13T06:20:12.235Z,28032.00
2018-07-13T06:21:12.151Z,29088.00
2018-07-13T06:22:13.266Z,28576.00
2018-07-13T06:23:12.143Z,28224.00
2018-07-13T06:24:12.149Z,30176.00
2018-07-13T06:25:12.113Z,31264.00
2018-07-13T06:26:12.168Z,31904.00
2018-07-13T06:27:12.089Z,32128.00
2018-07-13T06:28:12.076Z,31392.00
2018-07-13T06:29:12.073Z,32192.00
2018-07-13T06:30:12.116Z,33792.00
2018-07-13T06:31:12.113Z,34528.00
2018-07-13T06:32:12.039Z,34144.00
2018-07-13T06:33:12.025Z,33216.00
2018-07-13T06:34:12.016Z,32576.00
2018-07-13T06:35:12.008Z,33216.00
2018-07-13T06:36:12.063Z,33344.00
2018-07-13T06:37:11.983Z,33984.00
2018-07-13T06:38:11.974Z,35776.00
2018-07-13T06:39:11.963Z,36032.00
2018-07-13T06:40:11.952Z,35072.00
2018-07-13T06:41:12.008Z,36128.00
2018-07-13T06:42:11.932Z,37280.00
2018-07-13T06:43:12.768Z,38336.00
2018-07-13T06:44:11.912Z,39168.00
2018-07-13T06:45:11.903Z,39328.00
2018-07-13T06:46:11.951Z,39072.00
2018-07-13T06:47:11.887Z,38720.00
2018-07-13T06:48:11.873Z,38496.00
2018-07-13T06:49:11.862Z,39264.00
2018-07-13T06:50:11.852Z,40032.00
2018-07-13T06:51:11.904Z,41184.00
2018-07-13T06:52:11.830Z,41312.00
2018-07-13T06:53:11.819Z,41152.00
2018-07-13T06:54:11.805Z,42112.00
2018-07-13T06:55:11.800Z,42720.00
2018-07-13T06:56:11.855Z,43328.00
2018-07-13T06:57:11.779Z,45504.00
2018-07-13T06:58:11.766Z,47040.00
2018-07-13T06:59:11.761Z,48096.00
2018-07-13T07:00:11.747Z,47936.00
2018-07-13T07:01:11.805Z,46688.00
2018-07-13T07:02:11.725Z,46880.00
2018-07-13T07:03:11.716Z,48096.00
2018-07-13T07:04:12.265Z,49888.00
2018-07-13T07:05:11.694Z,49184.00
2018-07-13T07:06:11.752Z,48608.00
2018-07-13T07:07:11.676Z,49856.00
2018-07-13T07:08:11.667Z,49632.00
2018-07-13T07:09:11.653Z,48000.00
2018-07-13T07:10:11.642Z,49024.00
2018-07-13T07:11:11.699Z,48576.00
2018-07-13T07:12:11.622Z,47360.00
2018-07-13T07:13:11.615Z,50016.00
2018-07-13T07:14:11.608Z,52128.00
2018-07-13T07:15:11.592Z,53856.00
2018-07-13T07:16:11.657Z,54208.00
2018-07-13T07:17:11.569Z,54880.00
2018-07-13T07:18:11.562Z,54144.00
2018-07-13T07:19:11.555Z,55040.00
2018-07-13T07:20:11.557Z,56256.00
2018-07-13T07:21:11.599Z,57920.00
2018-07-13T07:22:11.522Z,57056.00
2018-07-13T07:23:11.511Z,56576.00
2018-07-13T07:24:11.500Z,58240.00
2018-07-13T07:25:12.265Z,60160.00
2018-07-13T07:26:11.551Z,60992.00
2018-07-13T07:27:11.472Z,61536.00
2018-07-13T07:28:11.463Z,64000.00
2018-07-13T07:29:11.449Z,64800.00
2018-07-13T07:30:11.441Z,63904.00
2018-07-13T07:31:12.265Z,62720.00
2018-07-13T07:32:11.495Z,64128.00
2018-07-13T07:33:11.410Z,67680.00
2018-07-13T07:34:11.402Z,66176.00
2018-07-13T07:35:11.458Z,65184.00
2018-07-13T07:36:11.382Z,65088.00
2018-07-13T07:37:11.436Z,64576.00
2018-07-13T07:38:11.368Z,65760.00
2018-07-13T07:39:11.349Z,66624.00
2018-07-13T07:40:11.340Z,65824.00
2018-07-13T07:41:11.332Z,66496.00
2018-07-13T07:42:11.387Z,66080.00
2018-07-13T07:43:11.320Z,64736.00
2018-07-13T07:44:11.301Z,65472.00
2018-07-13T07:45:11.293Z,67296.00
2018-07-13T07:46:12.263Z,67136.00
2018-07-13T07:47:11.338Z,67840.00
2018-07-13T07:48:11.271Z,69120.00
2018-07-13T07:49:11.258Z,69632.00
2018-07-13T07:50:11.252Z,69728.00
2018-07-13T07:51:11.236Z,68864.00
2018-07-13T07:52:11.293Z,68576.00
2018-07-13T07:53:11.219Z,69600.00
2018-07-13T07:54:11.210Z,70400.00
2018-07-13T07:55:11.202Z,70112.00
2018-07-13T07:56:11.189Z,70304.00
2018-07-13T07:57:11.247Z,71840.00
2018-07-13T07:58:11.174Z,70848.00
2018-07-13T07:59:11.161Z,72192.00
2018-07-13T08:00:11.153Z,72832.00
2018-07-13T08:01:11.142Z,73408.00
2018-07-13T08:02:11.203Z,72736.00
2018-07-13T08:03:11.125Z,72672.00
2018-07-13T08:04:11.122Z,72032.00
2018-07-13T08:05:11.116Z,72704.00
2018-07-13T08:06:11.204Z,70560.00
2018-07-13T08:07:11.767Z,70400.00
2018-07-13T08:08:11.081Z,74176.00
2018-07-13T08:09:11.070Z,73728.00
2018-07-13T08:10:11.059Z,73056.00
2018-07-13T08:11:11.051Z,73664.00
2018-07-13T08:12:11.111Z,75392.00
2018-07-13T08:13:11.033Z,75200.00
2018-07-13T08:14:11.300Z,76480.00
2018-07-13T08:15:11.014Z,75392.00
2018-07-13T08:16:11.003Z,74528.00
2018-07-13T08:17:11.000Z,75200.00
2018-07-13T08:18:11.053Z,76672.00
2018-07-13T08:19:10.983Z,76672.00
2018-07-13T08:20:11.046Z,77120.00
2018-07-13T08:21:10.961Z,76992.00
2018-07-13T08:22:10.952Z,79296.00
2018-07-13T08:23:11.011Z,80160.00
2018-07-13T08:24:10.936Z,79776.00
2018-07-13T08:25:10.924Z,78752.00
2018-07-13T08:26:10.923Z,77856.00
2018-07-13T08:27:10.908Z,77792.00
2018-07-13T08:28:11.346Z,78176.00
2018-07-13T08:29:10.890Z,82304.00
2018-07-13T08:30:10.879Z,81344.00
2018-07-13T08:31:10.877Z,79136.00
2018-07-13T08:32:10.862Z,78080.00
2018-07-13T08:33:10.920Z,78624.00
2018-07-13T08:34:10.845Z,78976.00
2018-07-13T08:35:10.837Z,80064.00
2018-07-13T08:36:10.828Z,77984.00
2018-07-13T08:37:10.885Z,78816.00
2018-07-13T08:38:10.872Z,79520.00
2018-07-13T08:39:10.809Z,80736.00
2018-07-13T08:40:10.795Z,80288.00
2018-07-13T08:41:10.786Z,79744.00
2018-07-13T08:42:10.778Z,79936.00
2018-07-13T08:43:10.835Z,80192.00
2018-07-13T08:44:10.783Z,79872.00
2018-07-13T08:45:10.764Z,82336.00
2018-07-13T08:46:10.757Z,82816.00
2018-07-13T08:47:10.733Z,83456.00
2018-07-13T08:48:10.794Z,84768.00
2018-07-13T08:49:11.267Z,85280.00
2018-07-13T08:50:10.711Z,85376.00
2018-07-13T08:51:10.781Z,84640.00
2018-07-13T08:52:10.699Z,86656.00
2018-07-13T08:53:10.749Z,87680.00
2018-07-13T08:54:10.677Z,85472.00
2018-07-13T08:55:10.669Z,85888.00
2018-07-13T08:56:10.667Z,86528.00
2018-07-13T08:57:10.655Z,83712.00
2018-07-13T08:58:10.710Z,83072.00
2018-07-13T08:59:10.639Z,84544.00
2018-07-13T09:00:10.631Z,85216.00
2018-07-13T09:01:10.625Z,84352.00
2018-07-13T09:02:10.613Z,85472.00
2018-07-13T09:03:10.671Z,83712.00
2018-07-13T09:04:10.617Z,84544.00
2018-07-13T09:05:10.589Z,83936.00
2018-07-13T09:06:10.580Z,85376.00
2018-07-13T09:07:10.574Z,82176.00
2018-07-13T09:08:10.632Z,82880.00
2018-07-13T09:09:10.561Z,83264.00
2018-07-13T09:10:11.268Z,87136.00
2018-07-13T09:11:10.540Z,90112.00
2018-07-13T09:12:10.540Z,87552.00
2018-07-13T09:13:10.598Z,87072.00
2018-07-13T09:14:10.582Z,87232.00
2018-07-13T09:15:10.524Z,90848.00
2018-07-13T09:16:10.501Z,91712.00
2018-07-13T09:17:10.495Z,90432.00
2018-07-13T09:18:10.489Z,88064.00
2018-07-13T09:19:10.544Z,87520.00
2018-07-13T09:20:10.473Z,94240.00
2018-07-13T09:21:10.464Z,95712.00
2018-07-13T09:22:10.459Z,95936.00
2018-07-13T09:23:10.447Z,95680.00
2018-07-13T09:24:10.577Z,90208.00
2018-07-13T09:25:10.431Z,91648.00
2018-07-13T09:26:10.433Z,94816.00
2018-07-13T09:27:10.419Z,91072.00
2018-07-13T09:28:10.413Z,90848.00
2018-07-13T09:29:10.466Z,88256.00
2018-07-13T09:30:10.391Z,85600.00
2018-07-13T09:31:11.314Z,84224.00
2018-07-13T09:32:10.375Z,91520.00
2018-07-13T09:33:10.374Z,89248.00
2018-07-13T09:34:10.429Z,94848.00
2018-07-13T09:35:10.363Z,91168.00
2018-07-13T09:36:10.343Z,91904.00
2018-07-13T09:37:10.338Z,93184.00
2018-07-13T09:38:10.335Z,92448.00
2018-07-13T09:39:10.407Z,95136.00
2018-07-13T09:40:10.320Z,94944.00
2018-07-13T09:41:10.315Z,94240.00
2018-07-13T09:42:10.304Z,100256.00
2018-07-13T09:43:10.292Z,100608.00
2018-07-13T09:44:10.359Z,101888.00
2018-07-13T09:45:10.279Z,101152.00
2018-07-13T09:46:10.273Z,103904.00
2018-07-13T09:47:10.264Z,102944.00
2018-07-13T09:48:18.349Z,103392.00
2018-07-13T09:49:10.319Z,106976.00
2018-07-13T09:50:10.252Z,110944.00
2018-07-13T09:51:10.234Z,113408.00
2018-07-13T09:52:10.228Z,115872.00
2018-07-13T09:53:10.222Z,109152.00
2018-07-13T09:54:10.333Z,106496.00
2018-07-13T09:55:10.205Z,109728.00
2018-07-13T09:56:10.196Z,108192.00
2018-07-13T09:57:10.193Z,109664.00
2018-07-13T09:58:10.191Z,112224.00
2018-07-13T09:59:10.243Z,111712.00
2018-07-13T10:00:10.174Z,111040.00
2018-07-13T10:01:10.162Z,115424.00
2018-07-13T10:02:10.154Z,116032.00
2018-07-13T10:03:10.162Z,116672.00
2018-07-13T10:04:10.209Z,118784.00
2018-07-13T10:05:10.137Z,116896.00
2018-07-13T10:06:10.134Z,115872.00
2018-07-13T10:07:10.123Z,116224.00
2018-07-13T10:08:10.117Z,113952.00
2018-07-13T10:09:10.379Z,113856.00
2018-07-13T10:10:10.101Z,114752.00
2018-07-13T10:11:10.100Z,112608.00
2018-07-13T10:12:10.091Z,115232.00
2018-07-13T10:13:10.084Z,114816.00
2018-07-13T10:14:10.147Z,115808.00
2018-07-13T10:15:10.075Z,114272.00
2018-07-13T10:16:10.060Z,113888.00
2018-07-13T10:17:10.052Z,112256.00
2018-07-13T10:18:10.073Z,113216.00
2018-07-13T10:19:10.041Z,112544.00
2018-07-13T10:20:10.101Z,112320.00
2018-07-13T10:21:10.027Z,118336.00
2018-07-13T10:22:10.018Z,115552.00
2018-07-13T10:23:10.013Z,111584.00
2018-07-13T10:24:10.013Z,115168.00
2018-07-13T10:25:10.073Z,110400.00
2018-07-13T10:26:09.992Z,112768.00
2018-07-13T10:27:09.984Z,110400.00
2018-07-13T10:28:09.978Z,111648.00
2018-07-13T10:29:09.982Z,111264.00
2018-07-13T10:30:10.362Z,108288.00
2018-07-13T10:31:09.959Z,104544.00
2018-07-13T10:32:09.953Z,106048.00
2018-07-13T10:33:09.949Z,108032.00
2018-07-13T10:34:09.938Z,106400.00
2018-07-13T10:35:09.999Z,104320.00
2018-07-13T10:36:09.932Z,102784.00
2018-07-13T10:37:09.922Z,101472.00
2018-07-13T10:38:09.913Z,106272.00
2018-07-13T10:39:09.910Z,106944.00
2018-07-13T10:40:09.973Z,111680.00
2018-07-13T10:41:09.896Z,109024.00
2018-07-13T10:42:09.891Z,106816.00
2018-07-13T10:43:09.893Z,103872.00
2018-07-13T10:44:09.879Z,105888.00
2018-07-13T10:45:09.947Z,107008.00
2018-07-13T10:46:09.868Z,108736.00
2018-07-13T10:47:09.862Z,107872.00
2018-07-13T10:48:09.851Z,111136.00
2018-07-13T10:49:09.850Z,102304.00
2018-07-13T10:50:09.909Z,99648.00
2018-07-13T10:51:10.780Z,97664.00
2018-07-13T10:52:09.834Z,101216.00
2018-07-13T10:53:09.820Z,112544.00
2018-07-13T10:54:09.817Z,108640.00
2018-07-13T10:55:09.877Z,107808.00
2018-07-13T10:56:09.800Z,109888.00
2018-07-13T10:57:09.800Z,107424.00
2018-07-13T10:58:09.789Z,103040.00
2018-07-13T10:59:09.786Z,30144.00
2018-07-13T11:00:09.841Z,98976.00
2018-07-13T11:01:09.769Z,104960.00
2018-07-13T11:02:09.768Z,31712.00
2018-07-13T11:03:09.755Z,105568.00
2018-07-13T11:04:09.749Z,104992.00
2018-07-13T11:05:09.820Z,104064.00
2018-07-13T11:06:09.738Z,103520.00
2018-07-13T11:07:09.729Z,102304.00
2018-07-13T11:08:09.746Z,101888.00
2018-07-13T11:09:09.715Z,101440.00
2018-07-13T11:10:09.776Z,102208.00
2018-07-13T11:11:09.704Z,103360.00
2018-07-13T11:12:10.278Z,103200.00
2018-07-13T11:13:09.689Z,102432.00
2018-07-13T11:14:09.684Z,101984.00
2018-07-13T11:15:09.751Z,100576.00
2018-07-13T11:16:09.678Z,98592.00
2018-07-13T11:17:09.663Z,98464.00
2018-07-13T11:18:09.658Z,94784.00
2018-07-13T11:19:09.660Z,95360.00
2018-07-13T11:20:09.713Z,97408.00
2018-07-13T11:21:09.643Z,95872.00
2018-07-13T11:22:09.635Z,98400.00
2018-07-13T11:23:09.627Z,102752.00
2018-07-13T11:24:09.656Z,31424.00
2018-07-13T11:25:10.054Z,44480.00
2018-07-13T11:26:09.609Z,25664.00
2018-07-13T11:27:09.598Z,23776.00
2018-07-13T11:28:09.592Z,25696.00
2018-07-13T11:29:09.587Z,102240.00
2018-07-13T11:30:09.653Z,99616.00
2018-07-13T11:31:09.577Z,97984.00
2018-07-13T11:32:09.882Z,91872.00
2018-07-13T11:33:10.689Z,110208.00
2018-07-13T11:34:10.471Z,109120.00
2018-07-13T11:35:10.180Z,106816.00
2018-07-13T11:36:10.199Z,109440.00
2018-07-13T11:37:09.894Z,107808.00
2018-07-13T11:38:09.706Z,104000.00
2018-07-13T11:39:09.686Z,112992.00
2018-07-13T11:40:09.682Z,98432.00
2018-07-13T11:41:09.563Z,56832.00
2018-07-13T11:42:09.496Z,82048.00
2018-07-13T11:43:09.490Z,109216.00
2018-07-13T11:44:09.513Z,103424.00
2018-07-13T11:45:09.484Z,119936.00
2018-07-13T11:46:09.547Z,114784.00
2018-07-13T11:47:09.464Z,107520.00
2018-07-13T11:48:09.464Z,114048.00
2018-07-13T11:49:09.450Z,103712.00
2018-07-13T11:50:09.444Z,103168.00
2018-07-13T11:51:09.505Z,104160.00
2018-07-13T11:52:09.453Z,101408.00
2018-07-13T11:53:09.454Z,103424.00
2018-07-13T11:54:10.259Z,103968.00
2018-07-13T11:55:09.410Z,105856.00
2018-07-13T11:56:09.855Z,104192.00
2018-07-13T11:57:09.399Z,104224.00
2018-07-13T11:58:09.393Z,112800.00
2018-07-13T11:59:09.385Z,112288.00
2018-07-13T12:00:09.419Z,105280.00
2018-07-13T12:01:09.446Z,105184.00
2018-07-13T12:02:09.368Z,101760.00
2018-07-13T12:03:09.365Z,105632.00
2018-07-13T12:04:09.364Z,112320.00
2018-07-13T12:05:09.354Z,109888.00
2018-07-13T12:06:09.422Z,115296.00
2018-07-13T12:07:09.341Z,112256.00
2018-07-13T12:08:09.333Z,99680.00
2018-07-13T12:09:09.341Z,112512.00
2018-07-13T12:10:09.321Z,108704.00
2018-07-13T12:11:09.380Z,96256.00